createdAt,value
2022-09-26T00:01:14.103Z,12.65
2022-09-26T00:04:23.388Z,12.66
2022-09-26T00:07:29.275Z,12.63
2022-09-26T00:10:36.581Z,12.65
2022-09-26T00:13:43.781Z,12.64
2022-09-26T00:16:51.087Z,12.58
2022-09-26T00:19:56.037Z,12.49
2022-09-26T00:23:03.035Z,12.43
2022-09-26T00:26:10.628Z,12.35
2022-09-26T00:29:16.541Z,12.29
2022-09-26T00:32:21.417Z,12.21
2022-09-26T00:35:26.371Z,12.11
2022-09-26T00:38:31.384Z,12.04
2022-09-26T00:41:38.436Z,11.99
2022-09-26T00:44:55.058Z,11.93
2022-09-26T00:48:02.907Z,11.96
2022-09-26T00:51:08.372Z,11.90
2022-09-26T00:54:15.812Z,11.82
2022-09-26T00:57:28.674Z,11.74
2022-09-26T01:00:34.268Z,11.71
2022-09-26T01:03:41.766Z,11.64
2022-09-26T01:06:47.693Z,11.59
2022-09-26T01:09:52.426Z,11.55
2022-09-26T01:12:57.929Z,11.51
2022-09-26T01:16:00.562Z,11.51
2022-09-26T01:19:07.383Z,11.47
2022-09-26T01:22:43.758Z,11.38
2022-09-26T01:26:13.677Z,11.34
2022-09-26T01:29:47.422Z,11.30
2022-09-26T01:33:28.771Z,11.26
2022-09-26T01:37:01.733Z,11.22
2022-09-26T01:40:11.854Z,11.22
2022-09-26T01:43:23.297Z,11.19
2022-09-26T01:46:35.299Z,11.20
2022-09-26T01:49:47.358Z,11.18
2022-09-26T01:52:56.672Z,11.21
2022-09-26T01:56:05.650Z,11.23
2022-09-26T01:59:13.047Z,11.22
2022-09-26T02:02:25.462Z,11.24
2022-09-26T02:05:33.566Z,11.30
2022-09-26T02:08:41.678Z,11.35
2022-09-26T02:11:48.338Z,11.38
2022-09-26T02:14:53.331Z,11.42
2022-09-26T02:18:01.544Z,11.45
2022-09-26T02:21:07.791Z,11.51
2022-09-26T02:24:12.258Z,11.51
2022-09-26T02:27:15.011Z,11.54
2022-09-26T02:30:17.949Z,11.55
2022-09-26T02:33:21.081Z,11.53
2022-09-26T02:36:24.758Z,11.50
2022-09-26T02:39:28.855Z,11.47
2022-09-26T02:42:36.517Z,11.48
2022-09-26T02:45:45.471Z,11.48
2022-09-26T02:49:01.855Z,11.50
2022-09-26T02:52:19.858Z,11.49
2022-09-26T02:55:32.001Z,11.50
2022-09-26T02:58:47.481Z,11.51
2022-09-26T03:01:56.505Z,11.51
2022-09-26T03:05:03.675Z,11.50
2022-09-26T03:08:11.469Z,11.52
2022-09-26T03:11:21.523Z,11.49
2022-09-26T03:14:24.128Z,11.48
2022-09-26T03:17:29.005Z,11.48
2022-09-26T03:20:31.818Z,11.47
2022-09-26T03:23:35.225Z,11.46
2022-09-26T03:26:41.321Z,11.46
2022-09-26T03:29:44.249Z,11.42
2022-09-26T03:32:46.893Z,11.42
2022-09-26T03:35:49.509Z,11.41
2022-09-26T03:38:52.305Z,11.40
2022-09-26T03:41:57.534Z,11.39
2022-09-26T03:45:00.534Z,11.37
2022-09-26T03:48:03.576Z,11.36
2022-09-26T03:51:07.910Z,11.34
2022-09-26T03:54:12.327Z,11.36
2022-09-26T03:57:17.875Z,11.32
2022-09-26T04:00:20.483Z,11.30
2022-09-26T04:03:23.083Z,11.27
2022-09-26T04:06:25.929Z,11.23
2022-09-26T04:09:28.837Z,11.19
2022-09-26T04:12:33.359Z,11.18
2022-09-26T04:15:36.680Z,11.15
2022-09-26T04:18:39.392Z,11.11
2022-09-26T04:21:42.965Z,11.02
2022-09-26T04:24:45.620Z,10.94
2022-09-26T04:27:49.591Z,10.90
2022-09-26T04:30:52.207Z,10.83
2022-09-26T04:33:55.813Z,10.83
2022-09-26T04:36:59.284Z,10.73
2022-09-26T04:40:02.355Z,10.69
2022-09-26T04:43:06.355Z,10.61
2022-09-26T04:46:11.617Z,10.54
2022-09-26T04:49:14.378Z,10.48
2022-09-26T04:52:17.063Z,10.49
2022-09-26T04:55:19.728Z,10.41
2022-09-26T04:58:23.801Z,10.37
2022-09-26T05:01:27.494Z,10.38
2022-09-26T05:04:33.579Z,10.29
2022-09-26T05:07:40.763Z,10.26
2022-09-26T05:10:43.776Z,10.23
2022-09-26T05:13:53.547Z,10.14
2022-09-26T05:16:56.739Z,10.11
2022-09-26T05:20:00.426Z,10.04
2022-09-26T05:23:04.618Z,10.03
2022-09-26T05:26:20.938Z,10.01
2022-09-26T05:29:24.893Z,9.97
2022-09-26T05:32:29.019Z,9.95
2022-09-26T05:35:34.743Z,9.95
2022-09-26T05:38:37.682Z,9.96
2022-09-26T05:41:39.350Z,9.97
2022-09-26T05:44:43.373Z,9.97
2022-09-26T05:47:48.652Z,10.04
2022-09-26T05:50:51.352Z,10.10
2022-09-26T05:53:53.987Z,10.11
2022-09-26T05:56:56.629Z,10.27
2022-09-26T06:00:02.374Z,10.32
2022-09-26T06:03:05.219Z,10.38
2022-09-26T06:06:10.436Z,10.46
2022-09-26T06:09:13.106Z,10.56
2022-09-26T06:12:19.600Z,10.63
2022-09-26T06:15:24.864Z,10.72
2022-09-26T06:18:27.862Z,10.75
2022-09-26T06:21:30.634Z,10.79
2022-09-26T06:24:33.258Z,10.83
2022-09-26T06:27:38.526Z,10.89
2022-09-26T06:30:42.953Z,10.90
2022-09-26T06:33:50.102Z,11.01
2022-09-26T06:36:52.879Z,11.08
2022-09-26T06:39:59.195Z,11.17
2022-09-26T06:43:02.395Z,11.30
2022-09-26T06:46:08.723Z,11.39
2022-09-26T06:49:11.362Z,11.46
2022-09-26T06:52:14.053Z,11.49
2022-09-26T06:55:17.147Z,11.55
2022-09-26T06:58:20.209Z,11.60
2022-09-26T07:01:24.289Z,11.64
2022-09-26T07:04:27.470Z,11.74
2022-09-26T07:07:30.783Z,11.82
2022-09-26T07:10:36.022Z,11.95
2022-09-26T07:13:39.095Z,12.06
2022-09-26T07:16:43.192Z,12.18
2022-09-26T07:19:46.823Z,12.30
2022-09-26T07:22:49.647Z,12.45
2022-09-26T07:25:53.065Z,12.61
2022-09-26T07:28:56.677Z,12.82
2022-09-26T07:32:01.191Z,12.92
2022-09-26T07:35:04.216Z,13.02
2022-09-26T07:38:06.938Z,13.15
2022-09-26T07:41:10.850Z,13.26
2022-09-26T07:47:54.999Z,13.27
2022-09-26T07:50:59.407Z,13.34
2022-09-26T07:54:02.248Z,13.41
2022-09-26T07:57:05.604Z,13.48
2022-09-26T08:00:12.803Z,13.51
2022-09-26T08:03:17.063Z,13.52
2022-09-26T08:06:20.854Z,13.53
2022-09-26T08:09:23.492Z,13.58
2022-09-26T08:12:26.984Z,13.66
2022-09-26T08:15:29.611Z,13.72
2022-09-26T08:18:34.511Z,13.80
2022-09-26T08:21:37.114Z,13.78
2022-09-26T08:24:40.014Z,13.85
2022-09-26T08:27:43.440Z,13.97
2022-09-26T08:30:46.593Z,14.08
2022-09-26T08:33:50.634Z,14.20
2022-09-26T08:36:54.703Z,14.33
2022-09-26T08:39:57.464Z,14.54
2022-09-26T08:43:07.421Z,14.74
2022-09-26T08:46:44.581Z,14.84
2022-09-26T08:50:09.961Z,14.99
2022-09-26T08:53:17.766Z,14.98
2022-09-26T08:56:23.766Z,14.95
2022-09-26T08:59:29.758Z,14.89
2022-09-26T09:02:38.961Z,15.03
2022-09-26T09:05:46.691Z,15.22
2022-09-26T09:08:51.790Z,15.55
2022-09-26T09:12:11.283Z,15.88
2022-09-26T09:15:28.869Z,16.27
2022-09-26T09:18:42.706Z,16.30
2022-09-26T09:22:01.650Z,16.59
2022-09-26T09:25:10.849Z,16.85
2022-09-26T09:28:32.203Z,17.11
2022-09-26T09:31:38.872Z,17.36
2022-09-26T09:34:50.132Z,17.58
2022-09-26T09:37:57.824Z,17.75
2022-09-26T09:41:05.357Z,17.81
2022-09-26T09:44:20.875Z,17.82
2022-09-26T09:47:23.662Z,18.01
2022-09-26T09:50:40.643Z,18.27
2022-09-26T09:54:09.193Z,18.59
2022-09-26T09:57:31.357Z,18.73
2022-09-26T10:00:41.373Z,18.89
2022-09-26T10:03:55.944Z,19.12
2022-09-26T10:06:59.749Z,19.08
2022-09-26T10:10:04.776Z,18.77
2022-09-26T10:13:09.096Z,18.40
2022-09-26T10:16:15.294Z,18.19
2022-09-26T10:19:18.157Z,17.91
2022-09-26T10:22:29.182Z,18.07
2022-09-26T10:25:33.209Z,18.33
2022-09-26T10:28:45.061Z,18.25
2022-09-26T10:31:55.297Z,18.06
2022-09-26T10:35:19.788Z,17.87
2022-09-26T10:38:27.191Z,17.58
2022-09-26T10:41:30.218Z,17.41
2022-09-26T10:44:34.679Z,17.33
2022-09-26T10:47:38.929Z,17.22
2022-09-26T10:50:51.383Z,17.22
2022-09-26T10:53:58.675Z,17.05
2022-09-26T10:57:04.987Z,16.95
2022-09-26T11:00:09.000Z,16.94
2022-09-26T11:03:14.073Z,16.97
2022-09-26T11:06:25.495Z,16.92
2022-09-26T11:09:28.833Z,16.87
2022-09-26T11:12:39.508Z,16.79
2022-09-26T11:15:43.061Z,16.78
2022-09-26T11:18:52.731Z,16.81
2022-09-26T11:22:07.282Z,16.79
2022-09-26T11:25:17.074Z,16.93
2022-09-26T11:28:25.020Z,17.17
2022-09-26T11:31:30.223Z,17.32
2022-09-26T11:34:36.143Z,17.54
2022-09-26T11:38:05.582Z,17.75
2022-09-26T11:41:36.660Z,17.90
2022-09-26T11:44:54.542Z,17.83
2022-09-26T11:48:18.541Z,17.55
2022-09-26T11:51:40.711Z,17.30
2022-09-26T11:55:08.365Z,17.10
2022-09-26T11:58:21.862Z,16.82
2022-09-26T12:01:38.114Z,16.43
2022-09-26T12:04:57.417Z,16.12
2022-09-26T12:08:14.750Z,15.76
2022-09-26T12:11:26.857Z,15.48
2022-09-26T12:14:42.593Z,15.25
2022-09-26T12:17:59.440Z,15.23
2022-09-26T12:21:17.642Z,15.63
2022-09-26T12:24:27.170Z,16.13
2022-09-26T12:27:36.994Z,16.51
2022-09-26T12:30:48.162Z,16.87
2022-09-26T12:34:12.273Z,17.14
2022-09-26T12:37:32.634Z,17.45
2022-09-26T12:40:40.454Z,17.87
2022-09-26T12:44:08.626Z,18.06
2022-09-26T12:47:43.356Z,18.08
2022-09-26T12:50:56.217Z,17.71
2022-09-26T12:54:20.175Z,17.66
2022-09-26T12:57:30.949Z,18.00
2022-09-26T13:00:40.901Z,18.10
2022-09-26T13:04:15.006Z,17.83
2022-09-26T13:07:34.531Z,17.54
2022-09-26T13:10:48.805Z,17.28
2022-09-26T13:14:38.272Z,17.07
2022-09-26T13:17:46.025Z,16.92
2022-09-26T13:20:53.762Z,16.76
2022-09-26T13:24:02.025Z,16.76
2022-09-26T13:27:13.421Z,16.67
2022-09-26T13:30:19.602Z,16.53
2022-09-26T13:33:28.389Z,16.45
2022-09-26T13:36:32.365Z,16.46
2022-09-26T13:39:47.986Z,16.56
2022-09-26T13:43:02.947Z,16.98
2022-09-26T13:46:16.092Z,17.27
2022-09-26T13:49:37.503Z,17.67
2022-09-26T13:52:52.253Z,17.82
2022-09-26T13:56:49.442Z,17.56
2022-09-26T13:59:54.331Z,17.36
2022-09-26T14:03:39.941Z,17.32
2022-09-26T14:07:03.894Z,17.17
2022-09-26T14:10:18.475Z,17.07
2022-09-26T14:13:35.868Z,17.82
2022-09-26T14:16:39.420Z,17.86
2022-09-26T14:19:46.620Z,17.50
2022-09-26T14:22:54.009Z,17.32
2022-09-26T14:26:05.362Z,17.13
2022-09-26T14:29:31.298Z,17.10
2022-09-26T14:32:38.631Z,17.12
2022-09-26T14:35:43.158Z,17.10
2022-09-26T14:38:47.817Z,17.05
2022-09-26T14:41:50.998Z,16.84
2022-09-26T14:44:59.613Z,16.72
2022-09-26T14:48:09.798Z,16.55
2022-09-26T14:51:25.718Z,16.39
2022-09-26T14:54:35.445Z,16.30
2022-09-26T14:57:38.824Z,16.21
2022-09-26T15:00:47.517Z,16.16
2022-09-26T15:03:54.887Z,16.01
2022-09-26T15:07:02.582Z,15.89
2022-09-26T15:10:10.358Z,15.80
2022-09-26T15:13:28.088Z,15.84
2022-09-26T15:16:37.374Z,15.80
2022-09-26T15:19:49.094Z,15.73
2022-09-26T15:22:57.137Z,15.66
2022-09-26T15:26:02.870Z,15.66
2022-09-26T15:29:07.996Z,15.61
2022-09-26T15:32:16.834Z,15.57
2022-09-26T15:35:20.480Z,15.48
2022-09-26T15:38:24.921Z,15.42
2022-09-26T15:41:45.303Z,15.33
2022-09-26T15:44:50.965Z,15.30
2022-09-26T15:47:56.351Z,15.29
2022-09-26T15:51:05.619Z,15.32
2022-09-26T15:54:20.326Z,15.27
2022-09-26T15:57:25.337Z,15.27
2022-09-26T16:00:33.401Z,15.23
2022-09-26T16:03:45.726Z,15.15
2022-09-26T16:06:57.982Z,15.14
2022-09-26T16:10:01.180Z,15.08
2022-09-26T16:13:03.937Z,15.04
2022-09-26T16:16:09.619Z,14.96
2022-09-26T16:19:30.183Z,14.98
2022-09-26T16:22:40.417Z,14.90
2022-09-26T16:25:56.409Z,14.90
2022-09-26T16:29:00.255Z,14.92
2022-09-26T16:32:04.194Z,14.86
2022-09-26T16:35:19.592Z,14.81
2022-09-26T16:38:28.439Z,14.86
2022-09-26T16:45:14.805Z,14.85
2022-09-26T16:48:41.006Z,14.80
2022-09-26T16:52:13.033Z,14.85
2022-09-26T16:55:16.258Z,14.79
2022-09-26T16:58:19.166Z,14.72
2022-09-26T17:01:39.768Z,14.75
2022-09-26T17:04:44.182Z,14.67
2022-09-26T17:07:50.256Z,14.65
2022-09-26T17:10:56.526Z,14.60
2022-09-26T17:13:59.771Z,14.54
2022-09-26T17:17:03.942Z,14.54
2022-09-26T17:20:12.710Z,14.54
2022-09-26T17:23:38.729Z,14.53
2022-09-26T17:26:43.422Z,14.53
2022-09-26T17:29:48.587Z,14.52
2022-09-26T17:32:54.207Z,14.54
2022-09-26T17:35:57.084Z,14.52
2022-09-26T17:39:02.593Z,14.47
2022-09-26T17:42:05.741Z,14.50
2022-09-26T17:45:10.079Z,14.50
2022-09-26T17:48:16.454Z,14.46
2022-09-26T17:51:21.569Z,14.34
2022-09-26T17:54:31.108Z,14.34
2022-09-26T17:57:38.278Z,14.37
2022-09-26T18:00:44.350Z,14.35
2022-09-26T18:03:47.138Z,14.32
2022-09-26T18:06:49.998Z,14.29
2022-09-26T18:09:54.857Z,14.28
2022-09-26T18:13:00.234Z,14.25
2022-09-26T18:16:03.623Z,14.27
2022-09-26T18:19:07.702Z,14.26
2022-09-26T18:22:16.562Z,14.24
2022-09-26T18:25:23.880Z,14.26
2022-09-26T18:28:27.194Z,14.19
2022-09-26T18:31:32.097Z,14.20
2022-09-26T18:34:34.979Z,14.22
2022-09-26T18:37:38.183Z,14.19
2022-09-26T18:40:46.141Z,14.16
2022-09-26T18:43:52.019Z,14.09
2022-09-26T18:47:00.965Z,14.05
2022-09-26T18:50:05.250Z,14.03
2022-09-26T18:53:14.634Z,13.94
2022-09-26T18:56:36.274Z,13.98
2022-09-26T18:59:39.006Z,13.94
2022-09-26T19:02:43.142Z,13.91
2022-09-26T19:05:46.408Z,13.91
2022-09-26T19:08:54.007Z,13.91
2022-09-26T19:12:00.896Z,13.89
2022-09-26T19:15:15.384Z,13.88
2022-09-26T19:18:21.418Z,13.87
2022-09-26T19:21:33.388Z,13.88
2022-09-26T19:24:41.788Z,13.88
2022-09-26T19:27:53.710Z,13.86
2022-09-26T19:31:01.447Z,13.83
2022-09-26T19:34:07.528Z,13.84
2022-09-26T19:37:14.338Z,13.84
2022-09-26T19:40:21.226Z,13.96
2022-09-26T19:43:28.310Z,14.11
2022-09-26T19:46:34.734Z,14.18
2022-09-26T19:49:39.989Z,14.27
2022-09-26T19:52:45.996Z,14.32
2022-09-26T19:55:51.319Z,14.37
2022-09-26T19:58:59.493Z,14.35
2022-09-26T20:02:04.846Z,14.39
2022-09-26T20:05:17.867Z,14.38
2022-09-26T20:08:24.180Z,14.35
2022-09-26T20:11:28.928Z,14.38
2022-09-26T20:14:35.442Z,14.43
2022-09-26T20:17:40.544Z,14.40
2022-09-26T20:20:49.018Z,14.34
2022-09-26T20:23:54.109Z,14.38
2022-09-26T20:27:00.623Z,14.34
2022-09-26T20:30:29.039Z,14.34
2022-09-26T20:33:36.028Z,14.35
2022-09-26T20:36:46.538Z,14.30
2022-09-26T20:39:53.025Z,14.30
2022-09-26T20:43:02.510Z,14.37
2022-09-26T20:46:12.336Z,14.21
2022-09-26T20:49:20.589Z,14.20
2022-09-26T20:52:28.839Z,14.04
2022-09-26T20:55:34.087Z,13.93
2022-09-26T20:58:39.573Z,13.83
2022-09-26T21:01:46.382Z,13.87
2022-09-26T21:04:52.802Z,13.74
2022-09-26T21:08:00.303Z,13.76
2022-09-26T21:11:07.573Z,13.83
2022-09-26T21:14:12.304Z,13.77
2022-09-26T21:17:21.546Z,13.68
2022-09-26T21:20:28.687Z,13.62
2022-09-26T21:23:35.959Z,13.57
2022-09-26T21:26:41.024Z,13.57
2022-09-26T21:29:45.791Z,13.59
2022-09-26T21:32:54.924Z,13.53
2022-09-26T21:36:00.698Z,13.48
2022-09-26T21:39:06.951Z,13.37
2022-09-26T21:42:13.237Z,13.40
2022-09-26T21:45:17.945Z,13.35
2022-09-26T21:48:24.627Z,13.26
2022-09-26T21:51:31.209Z,13.20
2022-09-26T21:54:42.805Z,13.07
2022-09-26T21:57:50.894Z,13.01
2022-09-26T22:00:56.105Z,12.94
2022-09-26T22:04:02.923Z,12.89
2022-09-26T22:07:08.038Z,12.89
2022-09-26T22:10:16.308Z,12.81
2022-09-26T22:13:21.408Z,12.74
2022-09-26T22:16:27.170Z,12.70
2022-09-26T22:19:40.774Z,12.67
2022-09-26T22:22:45.968Z,12.66
2022-09-26T22:25:51.827Z,12.60
2022-09-26T22:28:57.203Z,12.59
2022-09-26T22:32:03.289Z,12.51
2022-09-26T22:35:10.545Z,12.36
2022-09-26T22:38:15.752Z,12.39
2022-09-26T22:41:21.051Z,12.45
2022-09-26T22:44:26.404Z,12.46
2022-09-26T22:47:31.275Z,12.44
2022-09-26T22:50:37.414Z,12.48
2022-09-26T22:53:43.603Z,12.47
2022-09-26T22:56:48.809Z,12.48
2022-09-26T22:59:53.786Z,12.36
2022-09-26T23:02:58.790Z,12.26
2022-09-26T23:06:06.193Z,12.28
2022-09-26T23:09:11.159Z,12.25
2022-09-26T23:12:16.667Z,12.27
2022-09-26T23:15:21.887Z,12.21
2022-09-26T23:18:28.870Z,12.23
2022-09-26T23:21:35.454Z,12.18
2022-09-26T23:24:40.468Z,12.21
2022-09-26T23:27:45.372Z,12.19
2022-09-26T23:30:50.511Z,12.22
2022-09-26T23:33:56.129Z,12.21
2022-09-26T23:37:02.692Z,12.20
2022-09-26T23:40:08.314Z,12.15
2022-09-26T23:43:13.766Z,12.14
2022-09-26T23:46:19.060Z,12.13
2022-09-26T23:49:23.976Z,12.14
2022-09-26T23:52:30.551Z,12.19
2022-09-26T23:55:35.524Z,12.17
2022-09-26T23:58:40.787Z,12.14
